Time;durP1;ratioP1;P1;durP2;ratioP2;P2;SDS_P1;SDS_P2;PMS_P1;PMS_P2;Temp;Humidity;BMP_temperature;BMP_pressure;BME280_temperature;BME280_humidity;BME280_pressure;Samples;Min_cycle;Max_cycle;Signal;HPM_P1;HPM_P2
2022/04/02 00:00:52;;;;;;;6.53;2.58;;;;;;;0.48;100.00;101450.19;5392223;27;20498;-76
2022/04/02 00:03:24;;;;;;;4.97;2.63;;;;;;;0.54;100.00;101451.69;5391625;27;20037;-76
2022/04/02 00:05:55;;;;;;;4.30;3.10;;;;;;;0.50;100.00;101458.00;5391704;27;20031;-76
2022/04/02 00:08:26;;;;;;;5.38;2.83;;;;;;;0.50;100.00;101460.63;5390946;27;20052;-76
2022/04/02 00:10:58;;;;;;;3.88;2.30;;;;;;;0.57;100.00;101459.44;5392447;27;20022;-76
2022/04/02 00:13:31;;;;;;;3.78;2.65;;;;;;;0.59;100.00;101447.09;5391018;27;20453;-76
2022/04/02 00:16:03;;;;;;;4.47;2.97;;;;;;;0.55;100.00;101451.63;5373502;27;20034;-75
2022/04/02 00:18:35;;;;;;;3.55;2.75;;;;;;;0.49;100.00;101458.91;5391228;27;20022;-75
2022/04/02 00:21:07;;;;;;;4.72;2.97;;;;;;;0.48;100.00;101454.56;5383024;27;20023;-75
2022/04/02 00:23:40;;;;;;;3.65;2.75;;;;;;;0.46;100.00;101459.88;5391365;27;20062;-76
2022/04/02 00:26:15;;;;;;;7.05;3.35;;;;;;;0.49;100.00;101461.53;5391501;27;20027;-76
2022/04/02 00:28:49;;;;;;;6.43;3.40;;;;;;;0.44;100.00;101461.72;5390997;27;20026;-75
2022/04/02 00:31:21;;;;;;;4.40;2.85;;;;;;;0.47;100.00;101460.72;5373607;27;20079;-75
2022/04/02 00:33:53;;;;;;;4.95;2.83;;;;;;;0.38;100.00;101462.81;5391788;27;20019;-75
2022/04/02 00:36:24;;;;;;;6.25;2.80;;;;;;;0.45;100.00;101457.31;5392229;27;20027;-74
2022/04/02 00:38:56;;;;;;;6.55;3.00;;;;;;;0.43;100.00;101452.13;5392971;27;20615;-73
2022/04/02 00:41:27;;;;;;;5.40;3.42;;;;;;;0.46;100.00;101452.00;5392483;27;20061;-74
2022/04/02 00:44:12;;;;;;;4.13;2.50;;;;;;;0.42;100.00;101452.19;5391374;27;20023;-74
2022/04/02 00:46:44;;;;;;;5.70;2.28;;;;;;;0.46;100.00;101451.16;5371845;27;20110;-74
2022/04/02 00:49:16;;;;;;;4.43;3.08;;;;;;;0.38;100.00;101454.94;5391366;27;20102;-75
2022/04/02 00:51:49;;;;;;;4.05;2.63;;;;;;;0.32;100.00;101455.19;5391686;27;20030;-75
2022/04/02 00:54:22;;;;;;;4.13;3.15;;;;;;;0.28;100.00;101452.75;5391915;27;20022;-74
2022/04/02 00:56:53;;;;;;;4.55;2.63;;;;;;;0.30;100.00;101451.78;5392544;27;20031;-74
2022/04/02 00:59:25;;;;;;;5.32;3.08;;;;;;;0.25;100.00;101447.63;5392200;27;20043;-74
2022/04/02 01:01:57;;;;;;;5.72;2.60;;;;;;;0.25;100.00;101456.34;5390208;27;20037;-74
2022/04/02 01:04:28;;;;;;;4.97;2.88;;;;;;;0.23;100.00;101449.44;5351891;27;20054;-74
2022/04/02 01:07:00;;;;;;;6.53;2.80;;;;;;;0.25;100.00;101455.50;5372191;27;20095;-75
2022/04/02 01:09:31;;;;;;;4.75;2.60;;;;;;;0.22;100.00;101455.63;5388234;27;20029;-75
2022/04/02 01:12:04;;;;;;;4.50;2.67;;;;;;;0.25;100.00;101450.25;5391322;27;20026;-74
2022/04/02 01:14:35;;;;;;;4.60;3.05;;;;;;;0.28;100.00;101453.63;5390411;27;20022;-75
2022/04/02 01:17:06;;;;;;;4.88;2.28;;;;;;;0.27;100.00;101454.53;5388901;27;42788;-74
2022/04/02 01:19:41;;;;;;;4.63;2.70;;;;;;;0.22;100.00;101453.84;5390918;27;20455;-74
2022/04/02 01:22:13;;;;;;;3.53;2.45;;;;;;;0.31;100.00;101460.50;5389693;27;20481;-75
2022/04/02 01:24:44;;;;;;;3.10;2.80;;;;;;;0.25;100.00;101451.09;5372072;27;20035;-75
2022/04/02 01:27:16;;;;;;;4.15;2.67;;;;;;;0.24;100.00;101454.63;5390517;27;20367;-75
2022/04/02 01:29:47;;;;;;;3.13;2.63;;;;;;;0.25;100.00;101458.97;5389829;27;20046;-74
2022/04/02 01:32:21;;;;;;;3.70;2.45;;;;;;;0.23;100.00;101454.69;5371192;27;20106;-74
2022/04/02 01:34:52;;;;;;;3.92;2.70;;;;;;;0.17;100.00;101467.13;5367917;27;20033;-74
2022/04/02 01:37:23;;;;;;;4.72;2.47;;;;;;;0.15;100.00;101452.38;5389500;27;27723;-75
2022/04/02 01:39:54;;;;;;;5.45;3.25;;;;;;;0.13;100.00;101455.06;5374659;27;20050;-75
2022/04/02 01:42:26;;;;;;;6.07;2.80;;;;;;;0.10;100.00;101449.09;5389724;27;20023;-74
2022/04/02 01:44:58;;;;;;;5.40;2.45;;;;;;;0.17;100.00;101450.56;5388895;27;20058;-74
2022/04/02 01:47:29;;;;;;;4.65;2.85;;;;;;;0.09;100.00;101447.38;5371178;27;20075;-75
2022/04/02 01:50:00;;;;;;;3.95;2.60;;;;;;;0.15;100.00;101447.97;5389961;27;20063;-74
2022/04/02 01:52:32;;;;;;;4.57;2.45;;;;;;;0.10;100.00;101459.56;5389694;27;20106;-75
2022/04/02 01:55:04;;;;;;;8.13;2.80;;;;;;;0.11;100.00;101458.69;5389730;27;20053;-74
2022/04/02 01:57:36;;;;;;;7.30;2.65;;;;;;;0.13;100.00;101462.94;5390252;27;20108;-74
2022/04/02 02:00:08;;;;;;;4.30;2.58;;;;;;;0.12;100.00;101466.50;5389102;27;20026;-75
2022/04/02 02:02:39;;;;;;;4.50;2.70;;;;;;;-0.01;100.00;101460.84;5389366;27;20121;-75
2022/04/02 02:05:11;;;;;;;4.47;2.70;;;;;;;0.05;100.00;101472.88;5389209;27;20034;-75
2022/04/02 02:07:49;;;;;;;4.03;2.90;;;;;;;-0.05;100.00;101471.53;5370924;27;20087;-75
2022/04/02 02:10:21;;;;;;;3.97;2.75;;;;;;;-0.07;100.00;101473.34;5389764;27;20023;-75
2022/04/02 02:12:52;;;;;;;6.40;2.60;;;;;;;-0.02;100.00;101468.78;5390308;27;20055;-75
2022/04/02 02:15:24;;;;;;;5.32;3.00;;;;;;;-0.16;100.00;101473.69;5353836;27;20132;-75
2022/04/02 02:17:56;;;;;;;3.67;2.67;;;;;;;-0.13;100.00;101470.97;5389964;27;20030;-75
2022/04/02 02:20:27;;;;;;;4.10;3.00;;;;;;;-0.18;100.00;101465.88;5387552;27;20019;-74
2022/04/02 02:22:58;;;;;;;4.35;2.50;;;;;;;-0.17;100.00;101472.00;5389954;27;20058;-74
2022/04/02 02:25:29;;;;;;;3.28;2.60;;;;;;;-0.12;100.00;101476.16;5389569;27;20027;-74
2022/04/02 02:28:01;;;;;;;4.55;2.97;;;;;;;-0.10;100.00;101473.47;5388633;27;38450;-74
2022/04/02 02:30:33;;;;;;;4.43;2.88;;;;;;;-0.17;100.00;101480.72;5388174;27;20110;-74
2022/04/02 02:35:54;;;;;;;4.75;2.58;;;;;;;-0.25;100.00;101483.59;5389115;27;20026;-74
2022/04/02 02:38:25;;;;;;;4.95;2.45;;;;;;;-0.27;100.00;101474.09;5389250;27;20106;-75
2022/04/02 02:40:56;;;;;;;4.53;2.40;;;;;;;-0.25;100.00;101482.75;5370448;27;20019;-74
2022/04/02 02:43:28;;;;;;;2.97;2.53;;;;;;;-0.16;100.00;101484.19;5388995;27;20424;-74
2022/04/02 02:45:59;;;;;;;4.47;2.80;;;;;;;-0.29;100.00;101482.03;5389345;27;20019;-74
2022/04/02 02:48:31;;;;;;;5.03;2.75;;;;;;;-0.24;100.00;101485.31;5388849;27;20122;-74
2022/04/02 02:51:02;;;;;;;5.82;2.80;;;;;;;-0.32;100.00;101483.91;5389096;27;20014;-74
2022/04/02 02:53:33;;;;;;;3.72;2.60;;;;;;;-0.28;100.00;101483.75;5388793;27;20025;-74
2022/04/02 02:56:05;;;;;;;4.25;2.25;;;;;;;-0.34;100.00;101475.25;5389270;27;20477;-74
2022/04/02 02:58:37;;;;;;;4.85;2.60;;;;;;;-0.25;100.00;101486.22;5388229;27;20026;-74
2022/04/02 03:01:09;;;;;;;5.35;2.75;;;;;;;-0.21;100.00;101493.09;5388730;27;20034;-74
2022/04/02 03:03:40;;;;;;;2.97;2.53;;;;;;;-0.24;100.00;101487.94;5369674;27;20067;-74
2022/04/02 03:06:13;;;;;;;2.72;2.33;;;;;;;-0.26;100.00;101489.78;5370320;27;20102;-74
2022/04/02 03:08:44;;;;;;;4.93;3.20;;;;;;;-0.31;100.00;101490.88;5388383;27;20033;-74
2022/04/02 03:11:15;;;;;;;4.75;2.88;;;;;;;-0.34;100.00;101485.72;5378135;27;20027;-74
2022/04/02 03:13:47;;;;;;;4.15;2.65;;;;;;;-0.42;100.00;101484.25;5388603;27;20522;-74
2022/04/02 03:16:18;;;;;;;4.95;2.67;;;;;;;-0.36;100.00;101490.19;5388919;27;20466;-74
2022/04/02 03:18:49;;;;;;;4.35;2.58;;;;;;;-0.32;100.00;101486.53;5388283;27;20018;-74
2022/04/02 03:21:20;;;;;;;3.45;2.38;;;;;;;-0.38;100.00;101483.22;5388146;27;20407;-74
2022/04/02 03:23:52;;;;;;;3.53;2.22;;;;;;;-0.32;100.00;101483.91;5388541;27;20404;-74
2022/04/02 03:26:26;;;;;;;3.92;2.45;;;;;;;-0.28;100.00;101489.00;5388546;27;20038;-75
2022/04/02 03:28:57;;;;;;;5.85;3.08;;;;;;;-0.25;100.00;101493.25;5368983;27;20075;-74
2022/04/02 03:31:28;;;;;;;4.22;2.45;;;;;;;-0.34;100.00;101490.97;5388917;27;20023;-74
2022/04/02 03:34:00;;;;;;;5.53;2.53;;;;;;;-0.43;100.00;101490.38;5388729;27;20023;-75
2022/04/02 03:36:32;;;;;;;4.75;2.42;;;;;;;-0.42;100.00;101493.84;5388413;27;20018;-75
2022/04/02 03:39:03;;;;;;;4.10;2.40;;;;;;;-0.47;100.00;101491.41;5362949;27;20083;-75
2022/04/02 03:41:35;;;;;;;4.78;2.28;;;;;;;-0.44;100.00;101491.31;5377287;27;20016;-75
2022/04/02 03:44:06;;;;;;;6.07;2.75;;;;;;;-0.47;100.00;101483.56;5392347;27;20410;-75
2022/04/02 03:49:27;;;;;;;5.00;3.05;;;;;;;-0.52;100.00;101487.25;5386314;27;20459;-75
2022/04/02 03:51:58;;;;;;;3.80;2.70;;;;;;;-0.48;100.00;101497.56;5393355;27;20014;-75
2022/04/02 03:54:30;;;;;;;3.90;2.70;;;;;;;-0.54;100.00;101503.03;5392583;27;20097;-75
2022/04/02 03:57:04;;;;;;;3.05;2.72;;;;;;;-0.51;100.00;101513.38;5392580;27;20015;-75
2022/04/02 03:59:36;;;;;;;3.92;2.53;;;;;;;-0.48;100.00;101513.28;5390569;27;20071;-75
2022/04/02 04:02:08;;;;;;;4.00;2.65;;;;;;;-0.53;100.00;101511.75;5389596;27;20368;-75
2022/04/02 04:04:40;;;;;;;4.85;3.03;;;;;;;-0.53;100.00;101509.97;5387973;27;20156;-75
2022/04/02 04:07:11;;;;;;;4.70;2.80;;;;;;;-0.52;100.00;101514.31;5391181;27;20117;-75
2022/04/02 04:09:42;;;;;;;4.22;2.83;;;;;;;-0.49;100.00;101519.47;5372442;27;20015;-75
2022/04/02 04:12:14;;;;;;;5.53;2.63;;;;;;;-0.49;100.00;101518.59;5390884;27;20023;-75
2022/04/02 04:14:46;;;;;;;3.78;2.80;;;;;;;-0.49;100.00;101519.47;5389891;27;20411;-75
2022/04/02 04:17:17;;;;;;;5.45;2.80;;;;;;;-0.47;100.00;101519.41;5389769;27;20030;-74
2022/04/02 04:19:50;;;;;;;4.38;2.53;;;;;;;-0.43;100.00;101527.09;5390846;27;20030;-75
2022/04/02 04:22:21;;;;;;;4.22;2.42;;;;;;;-0.46;100.00;101528.97;5390048;27;20143;-75
2022/04/02 04:24:53;;;;;;;3.97;2.50;;;;;;;-0.43;100.00;101528.88;5389023;27;20027;-75
2022/04/02 04:27:24;;;;;;;4.18;2.60;;;;;;;-0.55;100.00;101530.16;5390422;27;20416;-75
2022/04/02 04:29:56;;;;;;;4.15;2.67;;;;;;;-0.54;100.00;101524.00;5390638;27;20027;-75
2022/04/02 04:32:27;;;;;;;4.78;2.67;;;;;;;-0.52;100.00;101524.81;5387877;27;20027;-75
2022/04/02 04:34:59;;;;;;;5.35;2.50;;;;;;;-0.55;100.00;101526.69;5371294;27;20023;-75
2022/04/02 04:37:35;;;;;;;3.70;2.55;;;;;;;-0.58;100.00;101527.63;5390704;27;20162;-75
2022/04/02 04:40:08;;;;;;;3.60;2.53;;;;;;;-0.55;100.00;101527.53;5371115;27;20026;-75
2022/04/02 04:42:39;;;;;;;3.85;2.33;;;;;;;-0.60;100.00;101532.94;5390501;27;20054;-75
2022/04/02 04:45:10;;;;;;;4.07;2.90;;;;;;;-0.58;100.00;101536.38;5390226;27;20022;-75
2022/04/02 04:47:48;;;;;;;4.28;2.53;;;;;;;-0.67;100.00;101534.03;5390176;27;20033;-75
2022/04/02 04:50:19;;;;;;;3.53;2.55;;;;;;;-0.64;100.00;101548.81;5389519;27;20026;-75
2022/04/02 04:52:51;;;;;;;4.13;2.70;;;;;;;-0.72;100.00;101554.31;5389994;27;20167;-76
2022/04/02 04:55:22;;;;;;;4.10;2.85;;;;;;;-0.78;100.00;101549.28;5389663;27;20121;-76
2022/04/02 04:57:53;;;;;;;3.47;2.47;;;;;;;-0.77;100.00;101559.72;5390097;27;20026;-75
2022/04/02 05:00:24;;;;;;;3.97;2.80;;;;;;;-0.78;100.00;101565.84;5388820;27;20026;-75
2022/04/02 05:02:56;;;;;;;3.58;2.83;;;;;;;-0.82;100.00;101569.50;5389900;27;20042;-75
2022/04/02 05:05:31;;;;;;;4.60;2.70;;;;;;;-0.82;100.00;101572.13;5389137;27;20075;-75
2022/04/02 05:08:03;;;;;;;5.75;2.90;;;;;;;-0.80;100.00;101574.69;5385743;27;20050;-75
2022/04/02 05:10:35;;;;;;;3.63;2.22;;;;;;;-0.79;100.00;101574.63;5388657;27;20015;-75
2022/04/02 05:13:08;;;;;;;3.90;2.33;;;;;;;-0.71;100.00;101573.53;5389166;27;20376;-75
2022/04/02 05:15:41;;;;;;;3.83;2.30;;;;;;;-0.63;100.00;101572.34;5389398;27;20022;-75
2022/04/02 05:18:14;;;;;;;3.42;2.78;;;;;;;-0.72;100.00;101567.41;5389269;27;20025;-76
2022/04/02 05:20:45;;;;;;;4.95;2.25;;;;;;;-0.61;100.00;101577.53;5386307;27;20035;-75
2022/04/02 05:23:17;;;;;;;4.93;3.00;;;;;;;-0.63;100.00;101584.56;5389048;27;20137;-75
2022/04/02 05:25:48;;;;;;;6.10;2.30;;;;;;;-0.48;100.00;101593.69;5389776;27;20047;-75
2022/04/02 05:28:19;;;;;;;6.45;2.70;;;;;;;-0.53;100.00;101595.63;5388584;27;20027;-76
2022/04/02 05:30:51;;;;;;;4.25;2.40;;;;;;;-0.55;100.00;101595.66;5390002;27;20375;-75
2022/04/02 05:33:23;;;;;;;4.10;3.00;;;;;;;-0.49;100.00;101594.59;5370035;27;20501;-75
2022/04/02 05:35:54;;;;;;;6.68;2.47;;;;;;;-0.49;100.00;101602.44;5385478;27;20030;-75
2022/04/02 05:38:27;;;;;;;4.70;2.40;;;;;;;-0.49;100.00;101613.81;5388231;27;20027;-75
2022/04/02 05:40:58;;;;;;;4.45;2.55;;;;;;;-0.46;100.00;101608.44;5380680;27;20046;-76
2022/04/02 05:43:30;;;;;;;3.42;2.60;;;;;;;-0.40;100.00;101618.72;5382933;27;20117;-75
2022/04/02 05:46:01;;;;;;;3.65;2.58;;;;;;;-0.36;100.00;101616.84;5381665;27;20019;-76
2022/04/02 05:48:33;;;;;;;4.28;2.60;;;;;;;-0.31;100.00;101619.34;5389218;27;20046;-76
2022/04/02 05:51:05;;;;;;;3.53;2.30;;;;;;;-0.29;100.00;101625.38;5378852;27;20138;-76
2022/04/02 05:53:36;;;;;;;3.63;2.45;;;;;;;-0.21;100.00;101626.81;5383494;27;20030;-76
2022/04/02 05:56:08;;;;;;;6.18;2.90;;;;;;;-0.15;100.00;101632.75;5386147;27;20023;-76
2022/04/02 05:58:40;;;;;;;5.22;3.00;;;;;;;-0.09;100.00;101636.03;5388898;27;20423;-76
2022/04/02 06:01:11;;;;;;;4.18;2.50;;;;;;;-0.08;100.00;101642.97;5373728;27;20023;-76
2022/04/02 06:03:42;;;;;;;4.05;2.58;;;;;;;-0.04;100.00;101649.81;5385659;27;20466;-76
2022/04/02 06:06:14;;;;;;;3.90;2.70;;;;;;;0.01;100.00;101648.81;5389733;27;20018;-76
2022/04/02 06:08:45;;;;;;;5.90;2.83;;;;;;;0.09;100.00;101645.00;5390299;27;20026;-76
2022/04/02 06:11:16;;;;;;;3.22;2.78;;;;;;;0.14;100.00;101650.06;5388790;27;42927;-76
2022/04/02 06:13:48;;;;;;;5.07;2.72;;;;;;;0.19;100.00;101653.38;5389773;27;20051;-76
2022/04/02 06:16:19;;;;;;;4.72;2.40;;;;;;;0.23;100.00;101638.38;5390307;27;20066;-76
2022/04/02 06:18:50;;;;;;;4.20;2.58;;;;;;;0.35;100.00;101657.16;5390111;27;20027;-76
2022/04/02 06:21:21;;;;;;;3.40;2.45;;;;;;;0.47;100.00;101654.97;5389074;27;20111;-76
2022/04/02 06:23:53;;;;;;;4.43;2.60;;;;;;;0.53;100.00;101657.41;5389754;27;20033;-76
2022/04/02 06:26:25;;;;;;;8.13;2.60;;;;;;;0.56;100.00;101657.25;5389968;27;20039;-76
2022/04/02 06:28:59;;;;;;;5.30;2.40;;;;;;;0.63;100.00;101664.00;5389108;27;20101;-76
2022/04/02 06:31:30;;;;;;;6.90;2.47;;;;;;;0.75;100.00;101671.41;5371100;27;20027;-76
2022/04/02 06:34:01;;;;;;;4.65;2.88;;;;;;;0.81;100.00;101667.69;5370401;27;20026;-76
2022/04/02 06:36:32;;;;;;;4.25;2.40;;;;;;;0.90;100.00;101669.97;5389522;27;20050;-76
2022/04/02 06:39:04;;;;;;;4.15;2.45;;;;;;;0.92;100.00;101675.16;5389576;27;20023;-76
2022/04/02 06:41:35;;;;;;;3.25;2.20;;;;;;;0.96;100.00;101679.38;5389436;27;20029;-76
2022/04/02 06:44:08;;;;;;;3.90;2.53;;;;;;;1.04;100.00;101679.09;5388247;27;20037;-76
2022/04/02 06:46:39;;;;;;;3.95;2.75;;;;;;;1.09;100.00;101690.25;5389438;27;20027;-76
2022/04/02 06:49:11;;;;;;;7.43;3.00;;;;;;;1.23;100.00;101690.56;5389673;27;20467;-76
2022/04/02 06:51:42;;;;;;;5.75;2.67;;;;;;;1.34;100.00;101697.16;5389203;27;20052;-76
2022/04/02 06:54:13;;;;;;;3.47;2.47;;;;;;;1.48;100.00;101698.31;5389406;27;20065;-76
2022/04/02 06:56:45;;;;;;;3.45;2.53;;;;;;;1.64;100.00;101702.94;5389712;27;20030;-76
2022/04/02 06:59:16;;;;;;;4.88;2.17;;;;;;;1.74;100.00;101703.41;5388495;27;20019;-76
2022/04/02 07:01:48;;;;;;;5.10;2.78;;;;;;;1.83;100.00;101709.13;5389655;27;20022;-76
2022/04/02 07:04:19;;;;;;;6.32;2.40;;;;;;;2.07;100.00;101703.75;5389380;27;20083;-76
2022/04/02 07:06:51;;;;;;;4.25;2.65;;;;;;;2.16;100.00;101708.63;5371075;27;20763;-76
2022/04/02 07:09:22;;;;;;;4.70;2.50;;;;;;;2.37;100.00;101708.59;5388685;27;20067;-76
2022/04/02 07:11:53;;;;;;;4.22;2.65;;;;;;;2.67;100.00;101718.69;5389562;27;20029;-76
2022/04/02 07:14:24;;;;;;;3.72;2.15;;;;;;;2.84;100.00;101713.50;5388926;27;20439;-76
2022/04/02 07:16:56;;;;;;;6.75;3.28;;;;;;;2.99;100.00;101710.09;5373534;27;20083;-76
2022/04/02 07:19:27;;;;;;;4.80;2.80;;;;;;;3.17;100.00;101723.34;5392803;27;20019;-76
2022/04/02 07:22:00;;;;;;;9.20;2.65;;;;;;;3.44;100.00;101725.56;5374432;27;20048;-77
2022/04/02 07:24:31;;;;;;;5.30;2.58;;;;;;;3.68;100.00;101719.13;5370934;27;20084;-76
2022/04/02 07:27:03;;;;;;;5.43;2.58;;;;;;;3.84;100.00;101726.25;5370807;27;20019;-77
2022/04/02 07:29:35;;;;;;;4.13;2.22;;;;;;;4.04;100.00;101730.53;5370569;27;20383;-76
2022/04/02 07:32:09;;;;;;;4.82;2.55;;;;;;;4.18;100.00;101729.81;5371035;27;20062;-76
2022/04/02 07:34:40;;;;;;;4.03;2.63;;;;;;;4.47;100.00;101734.44;5351940;27;20023;-76
2022/04/02 07:37:41;;;;;;;4.65;2.40;;;;;;;4.57;100.00;101737.44;5371330;27;20450;-76
2022/04/02 07:40:16;;;;;;;2.88;2.13;;;;;;;4.80;100.00;101743.28;5351882;27;20031;-76
2022/04/02 07:43:02;;;;;;;4.10;2.72;;;;;;;5.07;100.00;101739.13;5369164;27;43172;-77
2022/04/02 07:45:45;;;;;;;3.08;2.33;;;;;;;5.47;100.00;101752.78;5370310;27;20106;-77
2022/04/02 07:48:18;;;;;;;3.58;2.40;;;;;;;5.65;100.00;101758.78;5370367;27;20064;-77
2022/04/02 07:50:51;;;;;;;4.03;2.50;;;;;;;6.08;100.00;101760.75;5371133;27;20023;-77
2022/04/02 07:53:24;;;;;;;3.53;2.17;;;;;;;6.79;100.00;101754.69;5370233;27;20027;-77
2022/04/02 07:56:03;;;;;;;4.50;2.28;;;;;;;7.22;100.00;101759.06;5352321;27;20322;-77
2022/04/02 07:58:38;;;;;;;3.88;2.50;;;;;;;7.90;100.00;101766.13;5369672;27;20513;-77
2022/04/02 08:01:13;;;;;;;5.35;2.45;;;;;;;8.64;100.00;101763.81;5370218;27;20051;-77
2022/04/02 08:03:45;;;;;;;4.25;2.63;;;;;;;8.93;89.98;101757.38;5387258;27;20121;-74
2022/04/02 08:06:19;;;;;;;3.28;2.40;;;;;;;9.36;91.56;101760.47;5392314;27;20140;-77
2022/04/02 08:08:50;;;;;;;3.80;2.38;;;;;;;9.69;85.06;101761.59;5392043;27;20026;-77
2022/04/02 08:11:22;;;;;;;5.15;2.33;;;;;;;9.80;70.44;101760.78;5392685;27;20015;-77
2022/04/02 08:13:54;;;;;;;4.43;2.67;;;;;;;9.37;69.24;101759.50;5391830;27;20023;-75
2022/04/02 08:16:26;;;;;;;3.50;2.53;;;;;;;9.62;76.05;101765.66;5373379;27;20518;-75
2022/04/02 08:18:58;;;;;;;6.18;2.80;;;;;;;8.98;66.94;101768.56;5392262;27;20057;-75
2022/04/02 08:21:30;;;;;;;4.85;2.83;;;;;;;9.10;67.86;101762.34;5391984;27;20035;-75
2022/04/02 08:24:03;;;;;;;5.72;3.20;;;;;;;9.26;70.17;101768.25;5392206;27;20053;-75
2022/04/02 08:27:01;;;;;;;4.50;2.50;;;;;;;9.81;71.23;101767.81;5392382;27;20019;-75
2022/04/02 08:29:53;;;;;;;4.10;2.95;;;;;;;10.57;75.22;101765.59;5391078;27;20015;-76
2022/04/02 08:32:46;;;;;;;4.18;2.88;;;;;;;10.26;67.11;101778.63;5391243;27;20041;-76
2022/04/02 08:35:41;;;;;;;3.67;2.60;;;;;;;10.30;61.49;101777.41;5391450;27;20027;-75
2022/04/02 08:38:50;;;;;;;4.97;2.63;;;;;;;9.66;67.19;101780.47;5391391;27;20022;-75
2022/04/02 08:41:52;;;;;;;3.90;2.50;;;;;;;9.53;69.55;101774.34;5372661;27;20026;-76
2022/04/02 08:44:54;;;;;;;3.78;2.80;;;;;;;8.92;77.69;101787.59;5371202;27;20030;-75
2022/04/02 08:48:03;;;;;;;4.35;2.78;;;;;;;8.75;77.51;101786.13;5391466;27;20209;-75
2022/04/02 08:50:36;;;;;;;4.28;2.60;;;;;;;8.18;73.39;101784.69;5373436;27;20023;-75
2022/04/02 08:53:19;;;;;;;7.18;3.30;;;;;;;7.69;83.81;101796.78;5369653;27;20086;-75
2022/04/02 08:56:00;;;;;;;4.35;2.83;;;;;;;7.26;100.00;101802.19;5369638;27;20081;-75
2022/04/02 08:58:38;;;;;;;6.65;3.30;;;;;;;6.81;100.00;101805.81;5368893;27;20274;-75
2022/04/02 09:01:11;;;;;;;6.13;2.90;;;;;;;6.72;100.00;101805.56;5350400;27;20027;-75
2022/04/02 09:03:55;;;;;;;5.75;3.42;;;;;;;6.40;100.00;101814.50;5386007;27;20054;-75
2022/04/02 09:06:38;;;;;;;3.80;3.15;;;;;;;6.60;100.00;101810.63;5390803;27;20030;-76
2022/04/02 09:09:24;;;;;;;4.88;3.38;;;;;;;6.48;100.00;101811.38;5390481;27;20027;-76
2022/04/02 09:12:14;;;;;;;4.68;3.22;;;;;;;7.27;100.00;101822.47;5391108;27;20015;-76
2022/04/02 09:15:00;;;;;;;5.25;3.30;;;;;;;7.05;100.00;101818.53;5389854;27;38724;-76
2022/04/02 09:17:37;;;;;;;7.57;3.50;;;;;;;6.37;100.00;101825.28;5391088;27;20165;-76
2022/04/02 09:20:38;;;;;;;4.78;3.20;;;;;;;6.90;100.00;101820.31;5388087;27;20031;-76
2022/04/02 09:23:15;;;;;;;4.72;3.05;;;;;;;6.86;100.00;101821.47;5345703;27;20181;-76
2022/04/02 09:26:04;;;;;;;4.05;3.40;;;;;;;7.02;100.00;101839.09;5347011;27;20586;-76
2022/04/02 09:29:07;;;;;;;4.40;3.10;;;;;;;6.87;100.00;101836.41;5345301;27;20097;-76
2022/04/02 09:32:16;;;;;;;4.13;3.35;;;;;;;6.85;100.00;101835.66;5347011;27;20531;-76
2022/04/02 09:35:06;;;;;;;4.57;3.40;;;;;;;7.65;100.00;101827.16;5347077;27;20468;-76
2022/04/02 09:38:00;;;;;;;5.05;3.50;;;;;;;8.03;100.00;101837.91;5345161;27;20032;-76
2022/04/02 09:40:43;;;;;;;3.88;3.40;;;;;;;7.32;93.89;101831.84;5345882;27;20019;-76
2022/04/02 09:43:26;;;;;;;4.43;3.22;;;;;;;6.80;100.00;101835.97;5346322;27;20035;-77
2022/04/02 09:46:27;;;;;;;6.13;2.80;;;;;;;6.48;100.00;101848.47;5345766;27;20026;-77
2022/04/02 09:49:21;;;;;;;5.20;3.45;;;;;;;6.16;100.00;101842.44;5330314;27;20031;-77
2022/04/02 09:52:01;;;;;;;4.63;3.60;;;;;;;6.99;100.00;101838.34;5346891;27;20024;-77
2022/04/02 09:54:45;;;;;;;5.30;3.55;;;;;;;8.92;100.00;101841.66;5346218;27;20019;-77
2022/04/02 09:57:31;;;;;;;4.80;3.03;;;;;;;10.68;76.97;101840.34;5346755;27;20030;-77
2022/04/02 10:00:06;;;;;;;5.90;3.30;;;;;;;10.23;68.11;101838.38;5346360;27;20080;-77
2022/04/02 10:03:02;;;;;;;6.88;3.42;;;;;;;10.74;70.86;101833.69;5354492;27;20345;-77
2022/04/02 10:05:46;;;;;;;4.20;2.97;;;;;;;11.40;65.78;101835.63;5368009;27;20504;-77
2022/04/02 10:08:42;;;;;;;4.35;3.00;;;;;;;11.49;56.42;101834.88;5368695;27;20123;-77
2022/04/02 10:11:17;;;;;;;5.07;2.88;;;;;;;9.97;54.83;101837.66;5350307;27;20375;-77
2022/04/02 10:13:49;;;;;;;4.03;3.03;;;;;;;9.18;56.38;101831.00;5344411;27;20016;-77
2022/04/02 10:16:22;;;;;;;3.08;2.58;;;;;;;8.73;60.74;101826.16;5346717;27;20046;-77
2022/04/02 10:18:56;;;;;;;6.72;2.97;;;;;;;8.76;68.81;101823.25;5345819;27;20032;-77
2022/04/02 10:21:29;;;;;;;5.63;3.10;;;;;;;9.45;63.30;101838.84;5350519;27;20031;-77
2022/04/02 10:24:24;;;;;;;5.65;2.58;;;;;;;9.69;60.29;101822.00;5367904;27;20024;-77
2022/04/02 10:26:57;;;;;;;5.35;2.90;;;;;;;8.81;63.10;101825.63;5368266;27;20058;-78
2022/04/02 10:29:55;;;;;;;5.57;3.10;;;;;;;8.19;71.76;101826.25;5367923;27;20019;-77
2022/04/02 10:32:51;;;;;;;4.50;3.00;;;;;;;7.33;91.36;101830.91;5367947;27;20019;-77
2022/04/02 10:35:27;;;;;;;3.78;3.25;;;;;;;6.38;100.00;101834.94;5369708;27;20027;-77
2022/04/02 10:38:18;;;;;;;5.32;3.75;;;;;;;6.02;100.00;101825.53;5386411;27;20022;-75
2022/04/02 10:40:52;;;;;;;5.43;3.55;;;;;;;5.60;100.00;101824.38;5385087;27;20527;-77
2022/04/02 10:43:29;;;;;;;7.13;3.28;;;;;;;5.33;100.00;101824.13;5369038;27;20060;-77
2022/04/02 10:46:03;;;;;;;5.22;2.97;;;;;;;5.32;100.00;101827.69;5383030;27;20046;-77
2022/04/02 10:49:05;;;;;;;7.32;3.35;;;;;;;5.32;100.00;101825.06;5371115;27;20332;-77
2022/04/02 10:51:40;;;;;;;5.25;3.60;;;;;;;5.27;100.00;101832.38;5382753;27;20561;-79
2022/04/02 10:54:13;;;;;;;4.70;3.03;;;;;;;5.07;100.00;101823.75;5393049;27;20026;-77
2022/04/02 10:56:47;;;;;;;6.90;3.75;;;;;;;4.98;100.00;101832.19;5392110;27;20098;-77
2022/04/02 10:59:19;;;;;;;6.10;3.47;;;;;;;4.84;100.00;101832.91;5391358;27;20124;-77
2022/04/02 11:01:54;;;;;;;4.90;3.45;;;;;;;4.72;100.00;101831.75;5393862;27;20030;-77
2022/04/02 11:05:02;;;;;;;7.07;3.65;;;;;;;4.58;100.00;101836.91;5374298;27;20041;-77
2022/04/02 11:07:40;;;;;;;4.10;3.50;;;;;;;4.43;100.00;101843.84;5392493;27;20030;-75
2022/04/02 11:10:21;;;;;;;5.68;3.67;;;;;;;4.38;100.00;101839.72;5392861;27;20457;-75
2022/04/02 11:13:00;;;;;;;6.28;3.50;;;;;;;4.29;100.00;101827.84;5392915;27;20092;-75
2022/04/02 11:15:40;;;;;;;6.07;3.97;;;;;;;4.34;100.00;101842.50;5392182;27;20011;-75
2022/04/02 11:18:17;;;;;;;4.57;3.70;;;;;;;4.49;100.00;101829.47;5392302;27;20034;-76
2022/04/02 11:20:50;;;;;;;6.03;3.85;;;;;;;4.53;100.00;101826.56;5384052;27;20039;-76
2022/04/02 11:23:39;;;;;;;5.85;3.30;;;;;;;4.81;100.00;101819.84;5370084;27;20041;-76
2022/04/02 11:26:14;;;;;;;4.47;3.03;;;;;;;5.16;100.00;101827.69;5370650;27;20512;-76
2022/04/02 11:28:49;;;;;;;7.03;3.60;;;;;;;7.41;100.00;101819.78;5370147;27;20027;-76
2022/04/02 11:31:28;;;;;;;3.50;2.78;;;;;;;8.88;100.00;101814.41;5370653;27;20012;-76
2022/04/02 11:34:08;;;;;;;3.60;2.85;;;;;;;9.53;78.37;101819.63;5366397;27;20038;-76
2022/04/02 11:36:46;;;;;;;4.43;2.92;;;;;;;9.79;77.01;101823.03;5370360;27;20050;-76
2022/04/02 11:39:45;;;;;;;4.10;2.90;;;;;;;9.60;73.17;101815.53;5370051;27;20361;-76
2022/04/02 11:42:21;;;;;;;5.38;2.85;;;;;;;8.60;80.96;101820.81;5369811;27;20145;-76
2022/04/02 11:44:53;;;;;;;4.13;2.60;;;;;;;7.70;72.84;101828.53;5351928;27;20052;-76
2022/04/02 11:47:34;;;;;;;3.47;2.40;;;;;;;7.07;74.95;101824.59;5351575;27;20016;-76
2022/04/02 11:50:08;;;;;;;6.82;3.05;;;;;;;6.75;77.71;101829.22;5370246;27;20031;-76
2022/04/02 11:52:51;;;;;;;4.65;2.67;;;;;;;6.67;80.73;101834.13;5370441;27;20062;-76
2022/04/02 11:55:25;;;;;;;3.55;2.55;;;;;;;6.76;73.39;101831.75;5369972;27;20454;-76
2022/04/02 11:57:58;;;;;;;4.80;2.60;;;;;;;7.82;75.79;101826.03;5370390;27;20022;-76
2022/04/02 12:00:31;;;;;;;4.82;1.95;;;;;;;10.04;67.43;101827.38;5369426;27;20019;-76
2022/04/02 12:03:05;;;;;;;3.13;1.92;;;;;;;10.96;58.49;101831.03;5380796;27;20042;-77
2022/04/02 12:05:42;;;;;;;4.07;2.20;;;;;;;12.01;50.14;101821.75;5391833;27;20467;-77
2022/04/02 12:08:30;;;;;;;2.80;1.80;;;;;;;11.99;49.27;101824.56;5391866;27;20023;-76